createdAt,value
2018-02-06T00:00:17.027Z,82.50
2018-02-06T00:01:17.023Z,82.88
2018-02-06T00:02:17.021Z,82.69
2018-02-06T00:03:17.019Z,82.60
2018-02-06T00:04:17.016Z,82.69
2018-02-06T00:05:17.021Z,82.69
2018-02-06T00:06:17.018Z,82.60
2018-02-06T00:07:17.013Z,82.50
2018-02-06T00:08:17.011Z,82.60
2018-02-06T00:09:17.015Z,82.79
2018-02-06T00:10:17.016Z,82.31
2018-02-06T00:11:17.010Z,82.31
2018-02-06T00:12:17.010Z,82.22
2018-02-06T00:13:17.013Z,82.50
2018-02-06T00:14:17.013Z,82.79
2018-02-06T00:15:17.007Z,82.69
2018-02-06T00:16:17.011Z,82.60
2018-02-06T00:17:17.008Z,82.22
2018-02-06T00:18:17.008Z,82.03
2018-02-06T00:19:17.003Z,82.41
2018-02-06T00:20:17.005Z,82.22
2018-02-06T00:21:17.003Z,82.31
2018-02-06T00:22:17.003Z,82.12
2018-02-06T00:23:16.998Z,82.69
2018-02-06T00:24:17.003Z,82.50
2018-02-06T00:25:16.999Z,82.41
2018-02-06T00:26:16.997Z,82.50
2018-02-06T00:27:17.020Z,82.69
2018-02-06T00:28:16.994Z,82.69
2018-02-06T00:29:16.996Z,82.69
2018-02-06T00:30:16.997Z,82.69
2018-02-06T00:31:16.990Z,82.60
2018-02-06T00:32:16.990Z,82.88
2018-02-06T00:33:16.997Z,82.88
2018-02-06T00:34:16.987Z,83.07
2018-02-06T00:35:16.989Z,83.07
2018-02-06T00:36:16.990Z,82.69
2018-02-06T00:37:16.986Z,83.26
2018-02-06T00:38:16.996Z,83.26
2018-02-06T00:39:17.005Z,83.36
2018-02-06T00:40:16.981Z,83.26
2018-02-06T00:41:16.984Z,82.98
2018-02-06T00:42:16.983Z,83.17
2018-02-06T00:43:16.975Z,83.17
2018-02-06T00:44:16.979Z,82.98
2018-02-06T00:45:16.978Z,83.07
2018-02-06T00:46:16.978Z,83.26
2018-02-06T00:47:16.973Z,83.26
2018-02-06T00:48:16.975Z,83.26
2018-02-06T00:49:16.972Z,83.26
2018-02-06T00:50:17.003Z,83.54
2018-02-06T00:51:16.969Z,83.36
2018-02-06T00:52:16.973Z,83.45
2018-02-06T00:53:16.965Z,83.45
2018-02-06T00:54:16.974Z,83.83
2018-02-06T00:55:16.964Z,83.54
2018-02-06T00:56:16.968Z,83.64
2018-02-06T00:57:16.959Z,83.54
2018-02-06T00:58:16.963Z,83.64
2018-02-06T00:59:16.963Z,83.73
2018-02-06T01:00:16.956Z,83.64
2018-02-06T01:01:16.963Z,83.73
2018-02-06T01:02:16.969Z,83.45
2018-02-06T01:03:16.958Z,83.92
2018-02-06T01:04:16.962Z,83.92
2018-02-06T01:05:16.961Z,83.83
2018-02-06T01:06:16.958Z,83.92
2018-02-06T01:07:16.952Z,84.11
2018-02-06T01:08:16.953Z,84.20
2018-02-06T01:09:16.955Z,83.83
2018-02-06T01:10:16.952Z,83.92
2018-02-06T01:11:16.947Z,84.20
2018-02-06T01:12:16.942Z,84.11
2018-02-06T01:13:16.948Z,84.01
2018-02-06T01:14:16.946Z,83.92
2018-02-06T01:15:16.950Z,83.64
2018-02-06T01:16:16.944Z,83.73
2018-02-06T01:17:16.941Z,83.92
2018-02-06T01:18:16.940Z,83.73
2018-02-06T01:19:16.940Z,83.64
2018-02-06T01:20:16.939Z,83.54
2018-02-06T01:21:16.935Z,83.45
2018-02-06T01:22:16.938Z,83.54
2018-02-06T01:23:16.934Z,83.54
2018-02-06T01:24:16.935Z,83.54
2018-02-06T01:25:16.933Z,83.54
2018-02-06T01:26:16.932Z,83.54
2018-02-06T01:27:16.926Z,83.64
2018-02-06T01:28:16.922Z,83.83
2018-02-06T01:29:16.938Z,83.73
2018-02-06T01:30:16.933Z,83.73
2018-02-06T01:31:16.929Z,83.73
2018-02-06T01:32:16.928Z,83.83
2018-02-06T01:33:16.918Z,83.83
2018-02-06T01:34:16.918Z,83.83
2018-02-06T01:35:16.918Z,83.73
2018-02-06T01:36:16.920Z,83.83
2018-02-06T01:37:16.913Z,84.11
2018-02-06T01:38:16.911Z,83.92
2018-02-06T01:39:16.917Z,83.92
2018-02-06T01:40:16.908Z,83.54
2018-02-06T01:41:16.917Z,83.54
2018-02-06T01:42:16.916Z,83.73
2018-02-06T01:43:16.911Z,83.83
2018-02-06T01:44:16.909Z,83.54
2018-02-06T01:45:16.911Z,83.73
2018-02-06T01:46:16.904Z,83.54
2018-02-06T01:47:16.902Z,83.26
2018-02-06T01:48:16.903Z,82.88
2018-02-06T01:49:16.903Z,82.98
2018-02-06T01:50:16.898Z,83.17
2018-02-06T01:51:16.929Z,83.07
2018-02-06T01:52:16.894Z,83.07
2018-02-06T01:53:16.904Z,83.07
2018-02-06T01:54:16.897Z,82.98
2018-02-06T01:55:16.893Z,83.26
2018-02-06T01:56:16.893Z,83.26
2018-02-06T01:57:16.897Z,83.07
2018-02-06T01:58:16.886Z,83.26
2018-02-06T01:59:16.888Z,83.17
2018-02-06T02:00:16.885Z,83.17
2018-02-06T02:01:16.890Z,83.17
2018-02-06T02:02:16.878Z,83.36
2018-02-06T02:03:16.882Z,83.17
2018-02-06T02:04:16.882Z,83.17
2018-02-06T02:05:16.875Z,82.98
2018-02-06T02:06:16.875Z,83.07
2018-02-06T02:07:16.888Z,83.17
2018-02-06T02:08:16.886Z,83.26
2018-02-06T02:09:16.928Z,83.26
2018-02-06T02:10:16.875Z,83.45
2018-02-06T02:11:16.873Z,82.98
2018-02-06T02:12:16.872Z,83.07
2018-02-06T02:13:16.874Z,82.88
2018-02-06T02:14:16.863Z,82.98
2018-02-06T02:15:16.867Z,82.88
2018-02-06T02:16:16.865Z,82.98
2018-02-06T02:17:16.865Z,83.17
2018-02-06T02:18:16.863Z,83.54
2018-02-06T02:19:16.862Z,83.54
2018-02-06T02:20:16.859Z,83.17
2018-02-06T02:21:16.872Z,83.64
2018-02-06T02:22:16.857Z,83.26
2018-02-06T02:23:16.854Z,83.54
2018-02-06T02:24:16.856Z,83.64
2018-02-06T02:25:16.854Z,83.64
2018-02-06T02:26:16.853Z,83.83
2018-02-06T02:27:16.848Z,83.64
2018-02-06T02:28:16.852Z,83.83
2018-02-06T02:29:16.846Z,83.83
2018-02-06T02:30:16.871Z,83.45
2018-02-06T02:31:16.848Z,84.20
2018-02-06T02:32:16.843Z,84.01
2018-02-06T02:33:16.839Z,83.92
2018-02-06T02:34:16.841Z,83.92
2018-02-06T02:35:16.831Z,84.01
2018-02-06T02:36:16.840Z,84.30
2018-02-06T02:37:16.834Z,84.39
2018-02-06T02:38:16.835Z,84.49
2018-02-06T02:39:16.826Z,84.16
2018-02-06T02:40:16.831Z,84.07
2018-02-06T02:41:16.830Z,84.39
2018-02-06T04:39:16.644Z,84.16
2018-02-06T04:40:16.646Z,84.16
2018-02-06T04:41:16.655Z,84.26
2018-02-06T04:42:16.639Z,84.35
2018-02-06T04:43:16.638Z,83.97
2018-02-06T04:44:16.646Z,84.16
2018-02-06T04:45:16.637Z,84.26
2018-02-06T04:46:16.631Z,84.16
2018-02-06T04:47:16.631Z,84.26
2018-02-06T04:48:16.637Z,84.26
2018-02-06T04:49:16.623Z,84.35
2018-02-06T04:50:16.628Z,84.16
2018-02-06T04:51:16.619Z,84.16
2018-02-06T04:52:16.620Z,84.16
2018-02-06T04:53:16.623Z,84.54
2018-02-06T04:54:16.632Z,84.35
2018-02-06T04:55:16.614Z,84.35
2018-02-06T04:56:16.612Z,84.16
2018-02-06T04:57:16.618Z,84.26
2018-02-06T04:58:16.637Z,84.26
2018-02-06T04:59:16.614Z,84.54
2018-02-06T05:00:16.610Z,85.39
2018-02-06T05:01:16.609Z,85.11
2018-02-06T05:02:16.607Z,84.45
2018-02-06T05:03:16.612Z,84.35
2018-02-06T05:04:16.598Z,84.45
2018-02-06T05:05:16.603Z,84.54
2018-02-06T05:06:16.606Z,84.26
2018-02-06T05:07:16.613Z,84.45
2018-02-06T05:08:16.598Z,84.54
2018-02-06T05:09:16.599Z,84.16
2018-02-06T05:10:16.597Z,84.45
2018-02-06T05:11:16.590Z,84.35
2018-02-06T05:12:16.589Z,84.26
2018-02-06T05:13:16.595Z,84.26
2018-02-06T05:14:16.581Z,84.26
2018-02-06T05:15:16.581Z,84.07
2018-02-06T05:16:16.585Z,84.16
2018-02-06T05:17:16.580Z,84.16
2018-02-06T05:18:16.585Z,84.16
2018-02-06T05:19:16.579Z,84.54
2018-02-06T05:20:16.643Z,84.16
2018-02-06T05:21:16.574Z,83.97
2018-02-06T05:22:16.580Z,84.54
2018-02-06T05:23:16.571Z,84.45
2018-02-06T05:24:16.569Z,84.64
2018-02-06T05:25:16.572Z,84.45
2018-02-06T05:26:16.570Z,84.26
2018-02-06T05:27:16.564Z,84.45
2018-02-06T05:28:16.560Z,84.07
2018-02-06T05:29:16.564Z,84.16
2018-02-06T05:30:16.574Z,84.26
2018-02-06T05:31:16.579Z,84.16
2018-02-06T05:32:16.570Z,84.45
2018-02-06T05:33:16.564Z,84.26
2018-02-06T05:34:16.560Z,84.26
2018-02-06T05:35:16.554Z,84.26
2018-02-06T05:36:16.550Z,84.26
2018-02-06T05:37:16.554Z,84.54
2018-02-06T05:38:16.556Z,84.16
2018-02-06T05:39:16.540Z,84.07
2018-02-06T05:40:16.546Z,84.16
2018-02-06T05:41:16.541Z,84.54
2018-02-06T05:42:16.555Z,84.64
2018-02-06T05:43:16.538Z,84.45
2018-02-06T05:44:16.541Z,85.30
2018-02-06T05:45:16.534Z,85.11
2018-02-06T05:46:16.538Z,84.16
2018-02-06T05:47:16.544Z,84.45
2018-02-06T05:48:16.540Z,84.64
2018-02-06T05:49:16.527Z,84.26
2018-02-06T05:50:16.533Z,84.54
2018-02-06T05:51:16.535Z,84.64
2018-02-06T05:52:16.517Z,84.26
2018-02-06T05:53:16.524Z,84.26
2018-02-06T05:54:16.529Z,84.26
2018-02-06T05:55:17.078Z,84.54
2018-02-06T05:56:16.542Z,84.45
2018-02-06T05:57:16.518Z,84.45
2018-02-06T05:58:16.515Z,84.54
2018-02-06T05:59:16.512Z,84.35
2018-02-06T06:00:16.505Z,85.01
2018-02-06T06:01:16.511Z,84.35
2018-02-06T06:02:16.511Z,84.35
2018-02-06T06:03:16.505Z,84.64
2018-02-06T06:04:16.504Z,84.45
2018-02-06T06:05:16.504Z,84.26
2018-02-06T06:06:16.500Z,84.35
2018-02-06T06:07:16.496Z,84.45
2018-02-06T06:08:16.497Z,84.45
2018-02-06T06:09:16.497Z,84.16
2018-02-06T06:10:16.493Z,84.54
2018-02-06T06:11:16.492Z,85.20
2018-02-06T06:12:16.493Z,84.54
2018-02-06T06:13:16.487Z,84.45
2018-02-06T06:14:16.485Z,84.45
2018-02-06T06:15:16.488Z,84.92
2018-02-06T06:16:16.486Z,84.92
2018-02-06T06:17:16.478Z,84.82
2018-02-06T06:18:16.482Z,84.73
2018-02-06T06:19:16.477Z,85.01
2018-02-06T06:20:16.478Z,84.92
2018-02-06T06:21:16.475Z,85.01
2018-02-06T06:22:16.478Z,84.64
2018-02-06T06:23:16.477Z,84.64
2018-02-06T06:24:16.473Z,84.82
2018-02-06T06:25:16.469Z,84.73
2018-02-06T06:26:16.467Z,85.01
2018-02-06T06:27:16.462Z,85.77
2018-02-06T06:28:16.464Z,88.32
2018-02-06T06:29:16.463Z,86.99
2018-02-06T06:30:16.460Z,86.52
2018-02-06T06:31:16.473Z,86.80
2018-02-06T06:32:16.459Z,86.24
2018-02-06T06:33:16.453Z,85.96
2018-02-06T06:34:16.452Z,85.30
2018-02-06T06:35:16.451Z,85.01
2018-02-06T06:36:16.451Z,83.88
2018-02-06T06:37:16.448Z,83.97
2018-02-06T06:38:16.445Z,83.69
2018-02-06T06:39:16.449Z,83.97
2018-02-06T06:40:16.444Z,84.07
2018-02-06T06:41:16.439Z,83.88
2018-02-06T06:42:16.439Z,83.59
2018-02-06T06:43:16.439Z,83.97
2018-02-06T06:44:16.434Z,84.35
2018-02-06T06:45:16.441Z,84.26
2018-02-06T06:46:16.435Z,85.20
2018-02-06T06:47:16.433Z,84.07
2018-02-06T06:48:16.427Z,84.16
2018-02-06T06:49:16.430Z,84.64
2018-02-06T06:50:16.424Z,85.11
2018-02-06T06:51:16.426Z,85.11
2018-02-06T06:52:16.423Z,85.20
2018-02-06T06:53:16.424Z,85.20
2018-02-06T06:54:16.417Z,85.20
2018-02-06T06:55:16.415Z,84.54
2018-02-06T06:56:16.417Z,84.92
2018-02-06T06:57:16.411Z,84.64
2018-02-06T06:58:16.414Z,84.92
2018-02-06T06:59:16.407Z,84.92
2018-02-06T07:00:16.412Z,85.30
2018-02-06T07:01:16.405Z,84.35
2018-02-06T07:02:16.408Z,85.01
2018-02-06T07:03:16.399Z,84.82
2018-02-06T07:04:16.403Z,84.82
2018-02-06T07:05:16.398Z,85.01
2018-02-06T07:06:16.396Z,84.82
2018-02-06T07:07:16.397Z,85.39
2018-02-06T07:08:16.393Z,84.82
2018-02-06T07:09:16.395Z,84.92
2018-02-06T07:10:16.391Z,85.20
2018-02-06T07:11:16.388Z,84.35
2018-02-06T07:12:16.386Z,84.16
2018-02-06T07:13:16.387Z,85.11
2018-02-06T07:14:16.386Z,85.11
2018-02-06T07:15:16.381Z,84.54
2018-02-06T07:16:16.382Z,84.45
2018-02-06T07:17:16.390Z,84.54
2018-02-06T07:18:16.377Z,84.35
2018-02-06T07:19:16.369Z,84.35
2018-02-06T07:20:16.376Z,84.16
2018-02-06T07:21:16.371Z,84.26
2018-02-06T07:22:16.452Z,84.16
2018-02-06T07:23:16.370Z,84.35
2018-02-06T07:24:16.373Z,84.35
2018-02-06T07:25:16.363Z,84.35
2018-02-06T07:26:16.368Z,84.35
2018-02-06T07:27:16.358Z,83.88
2018-02-06T07:28:16.384Z,83.97
2018-02-06T07:29:16.351Z,84.07
2018-02-06T07:30:16.358Z,84.16
2018-02-06T07:31:16.358Z,84.07
2018-02-06T07:32:16.356Z,83.78
2018-02-06T07:33:16.350Z,84.07
2018-02-06T07:34:16.347Z,83.59
2018-02-06T07:35:16.349Z,83.97
2018-02-06T07:36:16.348Z,83.40
2018-02-06T07:37:16.343Z,83.88
2018-02-06T07:38:16.342Z,83.50
2018-02-06T07:39:16.346Z,83.50
2018-02-06T07:40:16.344Z,83.78
2018-02-06T07:41:16.335Z,83.88
2018-02-06T07:42:16.336Z,83.50
2018-02-06T07:43:16.372Z,83.03
2018-02-06T07:44:16.336Z,83.22
2018-02-06T07:45:16.328Z,83.59
2018-02-06T07:46:16.333Z,83.22
2018-02-06T07:47:16.335Z,83.31
2018-02-06T07:48:16.336Z,82.84
2018-02-06T07:49:16.328Z,82.84
2018-02-06T07:50:16.324Z,83.22
2018-02-06T07:51:16.325Z,83.22
2018-02-06T07:52:16.371Z,83.03
2018-02-06T07:53:16.326Z,83.40
2018-02-06T07:54:16.318Z,83.12
2018-02-06T07:55:16.317Z,83.31
2018-02-06T07:56:16.319Z,83.03
2018-02-06T07:57:16.313Z,83.03
2018-02-06T07:58:16.312Z,82.75
2018-02-06T07:59:16.313Z,82.75
2018-02-06T08:00:16.313Z,82.56
2018-02-06T08:01:16.306Z,82.46
2018-02-06T08:02:16.311Z,82.84
2018-02-06T08:03:16.307Z,82.46
2018-02-06T08:04:16.301Z,82.84
2018-02-06T08:05:16.306Z,82.37
2018-02-06T08:06:16.301Z,82.65
2018-02-06T08:07:16.305Z,82.65
2018-02-06T08:08:16.297Z,82.65
2018-02-06T08:09:16.298Z,82.56
2018-02-06T08:10:16.306Z,81.80
2018-02-06T08:11:16.295Z,82.18
2018-02-06T08:12:16.291Z,82.28
2018-02-06T08:13:16.294Z,81.61
2018-02-06T08:14:16.289Z,81.65
2018-02-06T08:15:16.290Z,81.46
2018-02-06T08:16:16.305Z,81.18
2018-02-06T08:17:17.012Z,80.90
2018-02-06T08:18:16.288Z,80.99
2018-02-06T08:19:16.282Z,79.67
2018-02-06T08:20:16.282Z,79.76
2018-02-06T08:21:16.281Z,79.67
2018-02-06T08:22:16.285Z,79.76
2018-02-06T08:23:16.302Z,79.67
2018-02-06T08:24:16.276Z,79.48
2018-02-06T08:25:16.279Z,79.67
2018-02-06T08:26:16.278Z,79.57
2018-02-06T08:27:16.272Z,79.95
2018-02-06T08:28:16.276Z,79.57
2018-02-06T08:29:16.272Z,79.48
2018-02-06T08:30:16.275Z,79.57
2018-02-06T08:31:16.298Z,79.10
2018-02-06T08:32:16.272Z,79.10
2018-02-06T08:33:16.269Z,78.72
2018-02-06T08:34:16.268Z,77.72
2018-02-06T08:35:16.269Z,76.31
2018-02-06T08:36:16.273Z,74.74
2018-02-06T08:37:16.266Z,72.50
2018-02-06T08:38:16.262Z,70.23
2018-02-06T08:39:16.263Z,69.00
2018-02-06T08:40:16.271Z,67.61
2018-02-06T08:41:16.260Z,66.86
2018-02-06T08:42:16.266Z,65.75
2018-02-06T08:43:16.270Z,64.52
2018-02-06T08:44:16.265Z,63.67
2018-02-06T08:45:16.272Z,62.94
2018-02-06T08:46:16.276Z,62.56
2018-02-06T08:47:16.274Z,62.15
2018-02-06T08:48:16.278Z,62.56
2018-02-06T08:49:16.286Z,61.90
2018-02-06T08:50:16.282Z,61.36
2018-02-06T08:51:16.290Z,60.31
2018-02-06T08:52:16.289Z,59.37
2018-02-06T08:53:16.294Z,59.05
2018-02-06T08:54:16.299Z,60.35
2018-02-06T08:55:16.309Z,61.83
2018-02-06T08:56:16.313Z,63.98
2018-02-06T08:57:16.319Z,66.06
2018-02-06T08:58:16.323Z,67.20
2018-02-06T08:59:16.323Z,67.30
2018-02-06T09:00:16.330Z,68.43
2018-02-06T09:01:16.337Z,68.40
2018-02-06T09:02:16.339Z,68.96
2018-02-06T09:03:16.342Z,69.44
2018-02-06T09:04:16.349Z,69.06
2018-02-06T09:05:16.354Z,69.72
2018-02-06T09:06:16.358Z,69.82
2018-02-06T09:07:16.357Z,69.91
2018-02-06T09:08:16.366Z,70.20
2018-02-06T09:09:16.370Z,69.44
2018-02-06T09:10:16.379Z,70.01
2018-02-06T09:11:16.375Z,70.39
2018-02-06T09:12:16.394Z,71.04
2018-02-06T09:13:16.380Z,70.54
2018-02-06T09:14:16.384Z,71.48
2018-02-06T09:15:16.390Z,71.86
2018-02-06T09:16:16.389Z,71.86
2018-02-06T09:17:16.394Z,71.42
2018-02-06T09:18:16.396Z,70.86
2018-02-06T09:19:16.410Z,70.20
2018-02-06T09:20:16.405Z,70.10
2018-02-06T09:21:16.407Z,70.10
2018-02-06T09:22:16.409Z,70.29
2018-02-06T09:23:16.411Z,70.86
2018-02-06T09:24:16.410Z,69.91
2018-02-06T09:25:16.419Z,70.10
2018-02-06T09:26:16.417Z,69.91
2018-02-06T09:27:16.421Z,69.91
2018-02-06T09:28:16.424Z,69.34
2018-02-06T09:29:16.427Z,69.72
2018-02-06T09:30:16.429Z,69.82
2018-02-06T09:31:16.427Z,69.53
2018-02-06T09:32:16.433Z,69.72
2018-02-06T09:33:16.434Z,69.15
2018-02-06T09:34:16.444Z,69.00
2018-02-06T09:35:16.435Z,68.62
2018-02-06T09:36:16.441Z,68.24
2018-02-06T09:37:16.445Z,68.24
2018-02-06T09:38:16.454Z,68.43
2018-02-06T09:39:16.446Z,68.43
2018-02-06T09:40:16.452Z,68.43
2018-02-06T09:41:16.453Z,67.01
2018-02-06T09:42:16.459Z,66.73
2018-02-06T09:43:16.462Z,66.28
2018-02-06T09:44:16.462Z,65.88
2018-02-06T09:45:16.468Z,65.88
2018-02-06T09:46:16.475Z,66.44
2018-02-06T09:47:16.469Z,66.25
2018-02-06T09:48:16.471Z,65.81
2018-02-06T09:49:16.480Z,65.28
2018-02-06T09:50:16.482Z,64.11
2018-02-06T09:51:16.482Z,63.48
2018-02-06T09:52:16.487Z,63.26
2018-02-06T09:53:16.516Z,62.91
2018-02-06T09:54:16.495Z,63.16
2018-02-06T09:55:16.498Z,63.26
2018-02-06T09:56:16.498Z,64.20
2018-02-06T09:57:16.501Z,64.30
2018-02-06T09:58:16.510Z,64.01
2018-02-06T09:59:16.648Z,64.11
2018-02-06T10:00:16.512Z,64.39
2018-02-06T10:01:16.520Z,64.58
2018-02-06T10:02:16.526Z,65.15
2018-02-06T10:03:16.520Z,64.83
2018-02-06T10:04:16.525Z,65.31
2018-02-06T10:05:16.532Z,65.97
2018-02-06T10:06:16.538Z,66.44
2018-02-06T10:07:16.533Z,66.44
2018-02-06T10:08:16.543Z,67.20
2018-02-06T10:09:16.544Z,67.39
2018-02-06T10:10:16.549Z,67.86
2018-02-06T10:11:16.557Z,67.68
2018-02-06T10:12:16.555Z,67.86
2018-02-06T10:13:16.561Z,67.77
2018-02-06T10:14:16.554Z,67.86
2018-02-06T10:15:16.567Z,67.68
2018-02-06T10:16:16.564Z,67.49
2018-02-06T10:17:16.580Z,67.68
2018-02-06T10:18:16.573Z,67.20
2018-02-06T10:19:16.576Z,67.01
2018-02-06T10:20:16.580Z,67.11
2018-02-06T10:21:16.587Z,66.92
2018-02-06T10:22:16.585Z,67.01
2018-02-06T10:23:16.590Z,66.92
2018-02-06T10:24:16.589Z,66.35
2018-02-06T10:25:16.596Z,65.78
2018-02-06T10:26:16.594Z,65.40
2018-02-06T10:27:16.600Z,65.40
2018-02-06T10:28:16.597Z,65.59
2018-02-06T10:29:16.599Z,65.88
2018-02-06T10:30:16.602Z,66.16
2018-02-06T10:31:16.609Z,66.25
2018-02-06T10:32:16.616Z,66.44
2018-02-06T10:33:16.613Z,66.63
2018-02-06T10:34:16.614Z,67.11
2018-02-06T10:35:16.619Z,66.44
2018-02-06T10:36:16.623Z,66.25
2018-02-06T10:37:16.621Z,66.06
2018-02-06T10:38:16.624Z,66.06
2018-02-06T10:39:16.628Z,66.16
2018-02-06T10:40:16.633Z,65.97
2018-02-06T10:41:16.630Z,66.16
2018-02-06T10:42:16.648Z,65.69
2018-02-06T10:43:16.644Z,66.06
2018-02-06T10:44:16.644Z,66.25
2018-02-06T10:45:16.644Z,65.78
2018-02-06T10:46:17.541Z,65.97
2018-02-06T10:47:16.646Z,66.28
2018-02-06T10:48:16.649Z,65.44
2018-02-06T10:49:16.659Z,65.44
2018-02-06T10:50:16.652Z,65.15
2018-02-06T10:51:16.657Z,65.31
2018-02-06T10:52:16.662Z,65.40
2018-02-06T10:53:16.666Z,65.59
2018-02-06T10:54:16.665Z,65.88
2018-02-06T10:55:16.671Z,65.97
2018-02-06T10:56:17.469Z,66.06
2018-02-06T10:57:16.677Z,65.91
2018-02-06T10:58:16.678Z,66.00
2018-02-06T10:59:16.677Z,65.34
2018-02-06T11:00:16.682Z,65.25
2018-02-06T11:01:16.683Z,65.06
2018-02-06T11:02:16.687Z,64.77
2018-02-06T11:03:16.687Z,64.01
2018-02-06T11:04:16.694Z,64.20
2018-02-06T11:05:16.694Z,64.39
2018-02-06T11:06:16.697Z,64.23
2018-02-06T11:07:16.694Z,63.76
2018-02-06T11:08:16.703Z,63.26
2018-02-06T11:09:16.703Z,63.20
2018-02-06T11:10:16.709Z,63.20
2018-02-06T11:11:16.706Z,63.29
2018-02-06T11:12:16.729Z,63.29
2018-02-06T11:13:16.712Z,63.26
2018-02-06T11:14:16.718Z,63.67
2018-02-06T11:15:16.722Z,63.16
2018-02-06T11:16:16.726Z,63.45
2018-02-06T11:17:16.728Z,63.45
2018-02-06T11:18:16.729Z,64.01
2018-02-06T11:19:16.735Z,63.54
2018-02-06T11:20:16.738Z,63.82
2018-02-06T11:21:16.740Z,64.39
2018-02-06T11:22:16.739Z,64.77
2018-02-06T11:23:16.746Z,64.68
2018-02-06T11:24:16.754Z,65.06
2018-02-06T11:25:16.751Z,64.96
2018-02-06T11:26:16.753Z,64.30
2018-02-06T11:27:16.755Z,64.58
2018-02-06T11:28:16.759Z,64.87
2018-02-06T11:29:16.757Z,64.87
2018-02-06T11:30:16.763Z,64.36
2018-02-06T11:31:16.768Z,64.77
2018-02-06T11:32:16.773Z,64.87
2018-02-06T11:33:16.775Z,64.96
2018-02-06T11:34:16.779Z,64.87
2018-02-06T11:35:16.780Z,65.06
2018-02-06T11:36:16.778Z,65.34
2018-02-06T11:37:16.786Z,65.15
2018-02-06T11:38:16.811Z,65.06
2018-02-06T11:39:16.800Z,65.12
2018-02-06T11:40:16.793Z,65.44
2018-02-06T11:41:16.821Z,65.15
2018-02-06T11:42:16.798Z,65.25
2018-02-06T11:43:16.803Z,64.96
2018-02-06T11:44:16.805Z,65.02
2018-02-06T11:45:16.810Z,65.69
2018-02-06T11:46:16.811Z,65.31
2018-02-06T11:47:16.809Z,66.16
2018-02-06T11:48:16.815Z,65.88
2018-02-06T11:49:16.820Z,66.53
2018-02-06T11:50:16.824Z,66.35
2018-02-06T11:51:16.822Z,66.44
2018-02-06T11:52:16.828Z,66.16
2018-02-06T11:53:16.823Z,65.40
2018-02-06T11:54:16.828Z,65.15
2018-02-06T11:55:16.828Z,65.34
2018-02-06T11:56:16.830Z,65.34
2018-02-06T11:57:16.837Z,64.96
2018-02-06T11:58:16.885Z,64.58
2018-02-06T11:59:16.843Z,64.01
2018-02-06T12:00:16.842Z,63.82
2018-02-06T12:01:16.850Z,63.35
2018-02-06T12:02:16.846Z,64.01
2018-02-06T12:03:16.849Z,64.49
2018-02-06T12:04:16.860Z,64.30
2018-02-06T12:05:16.854Z,64.30
2018-02-06T12:06:16.857Z,64.77
2018-02-06T12:07:16.863Z,64.49
2018-02-06T12:08:16.866Z,64.87
2018-02-06T12:09:16.866Z,64.68
2018-02-06T12:10:16.876Z,64.39
2018-02-06T12:11:16.869Z,63.64
2018-02-06T12:12:16.882Z,63.26
2018-02-06T12:13:16.873Z,63.45
2018-02-06T12:14:16.882Z,63.92
2018-02-06T12:15:16.878Z,64.77
2018-02-06T12:16:16.888Z,64.39
2018-02-06T12:17:16.888Z,64.20
2018-02-06T12:18:16.895Z,64.33
2018-02-06T12:19:16.891Z,63.57
2018-02-06T12:20:16.893Z,63.39
2018-02-06T12:21:16.895Z,63.57
2018-02-06T12:22:16.903Z,63.76
2018-02-06T12:23:16.904Z,63.39
2018-02-06T12:24:16.911Z,63.29
2018-02-06T12:25:16.915Z,63.48
2018-02-06T12:26:16.911Z,63.76
2018-02-06T12:27:16.929Z,63.67
2018-02-06T12:28:16.919Z,63.29
2018-02-06T12:29:17.571Z,62.91
2018-02-06T12:30:16.920Z,62.82
2018-02-06T12:31:16.933Z,62.53
2018-02-06T12:32:16.936Z,62.24
2018-02-06T12:33:16.931Z,62.72
2018-02-06T12:34:16.938Z,62.53
2018-02-06T12:35:16.941Z,62.24
2018-02-06T12:36:16.939Z,62.62
2018-02-06T12:37:16.943Z,63.01
2018-02-06T12:38:16.946Z,62.78
2018-02-06T12:39:16.954Z,63.16
2018-02-06T12:40:16.952Z,63.64
2018-02-06T12:41:16.955Z,63.45
2018-02-06T12:42:16.961Z,63.76
2018-02-06T12:43:16.959Z,63.35
2018-02-06T12:44:16.963Z,64.33
2018-02-06T12:45:16.968Z,64.04
2018-02-06T12:46:16.972Z,64.30
2018-02-06T12:47:16.970Z,63.82
2018-02-06T12:48:16.972Z,64.87
2018-02-06T12:49:16.974Z,64.68
2018-02-06T12:50:16.976Z,64.39
2018-02-06T12:51:16.983Z,65.15
2018-02-06T12:52:17.002Z,65.37
2018-02-06T12:53:16.985Z,64.52
2018-02-06T12:54:16.988Z,63.85
2018-02-06T12:55:16.988Z,64.20
2018-02-06T12:56:16.994Z,64.30
2018-02-06T12:57:17.005Z,64.20
2018-02-06T12:58:17.003Z,64.39
2018-02-06T12:59:17.005Z,64.77
2018-02-06T13:00:17.004Z,64.49
2018-02-06T13:01:17.009Z,64.39
2018-02-06T13:02:17.009Z,65.15
2018-02-06T13:03:17.013Z,65.34
2018-02-06T13:04:17.019Z,65.15
2018-02-06T13:05:17.024Z,65.15
2018-02-06T13:06:17.025Z,64.87
2018-02-06T13:07:17.020Z,64.87
2018-02-06T13:08:17.035Z,65.06
2018-02-06T13:09:17.031Z,65.44
2018-02-06T13:10:17.032Z,65.53
2018-02-06T13:11:17.035Z,65.81
2018-02-06T13:12:17.039Z,65.81
2018-02-06T13:13:17.040Z,65.34
2018-02-06T13:14:17.043Z,65.25
2018-02-06T13:15:17.052Z,65.53
2018-02-06T13:16:17.051Z,65.34
2018-02-06T13:17:17.045Z,65.53
2018-02-06T13:18:17.052Z,64.81
2018-02-06T13:19:17.050Z,64.33
2018-02-06T13:20:17.056Z,64.52
2018-02-06T13:21:17.051Z,64.61
2018-02-06T13:22:17.061Z,64.39
2018-02-06T13:23:17.060Z,64.01
2018-02-06T13:24:17.062Z,64.87
2018-02-06T13:25:17.064Z,64.87
2018-02-06T13:26:17.075Z,64.96
2018-02-06T13:27:17.071Z,65.63
2018-02-06T13:28:17.070Z,65.72
2018-02-06T13:29:17.080Z,65.53
2018-02-06T13:30:17.079Z,65.34
2018-02-06T13:31:17.078Z,65.44
2018-02-06T13:32:17.103Z,65.44
2018-02-06T13:33:17.090Z,65.06
2018-02-06T13:34:17.095Z,65.34
2018-02-06T13:35:17.089Z,65.15
2018-02-06T13:36:18.078Z,65.53
2018-02-06T13:37:17.096Z,65.34
2018-02-06T13:38:17.093Z,64.87
2018-02-06T13:39:17.123Z,64.87
2018-02-06T13:40:17.099Z,64.87
2018-02-06T13:41:17.102Z,64.68
2018-02-06T13:42:17.108Z,64.68
2018-02-06T13:43:17.108Z,64.68
2018-02-06T13:44:17.109Z,65.25
2018-02-06T13:45:17.112Z,65.63
2018-02-06T13:46:17.114Z,65.53
2018-02-06T13:47:17.112Z,65.63
2018-02-06T13:48:17.126Z,65.53
2018-02-06T13:49:17.125Z,65.44
2018-02-06T13:50:17.125Z,65.34
2018-02-06T13:51:17.124Z,66.28
2018-02-06T13:52:17.126Z,65.63
2018-02-06T13:53:17.134Z,65.44
2018-02-06T13:54:17.135Z,65.15
2018-02-06T13:55:17.132Z,66.09
2018-02-06T13:56:17.138Z,65.63
2018-02-06T13:57:17.140Z,66.19
2018-02-06T13:58:17.143Z,65.34
2018-02-06T13:59:17.148Z,66.06
2018-02-06T14:00:17.148Z,65.88
2018-02-06T14:01:17.146Z,66.38
2018-02-06T14:02:17.147Z,66.28
2018-02-06T14:03:17.150Z,66.44
2018-02-06T14:04:17.153Z,66.19
2018-02-06T14:05:17.157Z,66.00
2018-02-06T14:06:17.153Z,66.25
2018-02-06T14:07:17.164Z,66.35
2018-02-06T14:08:17.161Z,66.35
2018-02-06T14:09:17.171Z,66.44
2018-02-06T14:10:17.178Z,66.25
2018-02-06T14:11:17.166Z,66.44
2018-02-06T14:12:17.169Z,66.44
2018-02-06T14:13:17.167Z,66.25
2018-02-06T14:14:17.180Z,66.25
2018-02-06T14:15:17.176Z,66.44
2018-02-06T14:16:17.173Z,66.44
2018-02-06T14:17:17.178Z,66.67
2018-02-06T14:18:17.181Z,66.09
2018-02-06T14:19:17.178Z,66.19
2018-02-06T14:20:17.183Z,66.47
2018-02-06T14:21:17.184Z,66.47
2018-02-06T14:22:17.191Z,66.25
2018-02-06T14:23:17.185Z,65.91
2018-02-06T14:24:17.200Z,65.97
2018-02-06T14:25:17.186Z,66.25
2018-02-06T14:26:17.188Z,66.44
2018-02-06T14:27:17.194Z,67.30
2018-02-06T14:28:17.197Z,66.73
2018-02-06T14:29:17.199Z,66.73
2018-02-06T14:30:17.203Z,66.53
2018-02-06T14:31:17.200Z,67.01
2018-02-06T14:32:17.204Z,67.01
2018-02-06T14:33:17.208Z,67.11
2018-02-06T14:34:17.238Z,66.92
2018-02-06T14:35:17.203Z,67.14
2018-02-06T14:36:17.206Z,67.05
2018-02-06T14:37:17.211Z,67.05
2018-02-06T14:38:17.212Z,67.14
2018-02-06T14:39:17.210Z,67.14
2018-02-06T14:40:17.212Z,67.14
2018-02-06T14:41:17.216Z,67.33
2018-02-06T14:42:17.215Z,67.90
2018-02-06T14:43:17.218Z,67.90
2018-02-06T14:44:17.218Z,67.61
2018-02-06T14:45:17.220Z,67.61
2018-02-06T14:46:17.219Z,67.80
2018-02-06T14:47:17.225Z,67.61
2018-02-06T14:48:17.224Z,67.61
2018-02-06T14:49:17.231Z,67.61